Time;durP1;ratioP1;P1;durP2;ratioP2;P2;SDS_P1;SDS_P2;PMS_P1;PMS_P2;Temp;Humidity;BMP_temperature;BMP_pressure;BME280_temperature;BME280_humidity;BME280_pressure;Samples;Min_cycle;Max_cycle;Signal;HPM_P1;HPM_P2
2022/12/22 03:26:32;;;;;;;131.85;37.58;;;;;;;8.33;100.00;100212.06;5050090;28;20087;-37
2022/12/22 03:28:57;;;;;;;125.07;37.60;;;;;;;8.32;100.00;100209.56;5065786;28;20098;-35
2022/12/22 03:31:22;;;;;;;131.63;38.92;;;;;;;8.30;100.00;100208.94;5070047;28;20491;-36
2022/12/22 03:33:48;;;;;;;118.22;35.65;;;;;;;8.33;100.00;100211.25;5069230;28;20032;-35
2022/12/22 03:36:13;;;;;;;124.60;36.60;;;;;;;8.33;100.00;100213.94;5050108;28;20025;-36
2022/12/22 03:38:38;;;;;;;125.65;36.55;;;;;;;8.34;100.00;100210.22;5048821;28;20090;-36
2022/12/22 03:41:04;;;;;;;126.03;35.55;;;;;;;8.33;100.00;100216.63;5048207;28;20348;-36
2022/12/22 03:46:30;;;;;;;124.78;36.25;;;;;;;8.36;100.00;100226.97;5050343;28;20531;-38
2022/12/22 03:49:09;;;;;;;115.13;34.50;;;;;;;8.36;100.00;100229.66;5049866;28;20453;-36
2022/12/22 03:51:44;;;;;;;113.32;32.45;;;;;;;8.38;100.00;100230.31;5049814;28;20388;-36
2022/12/22 03:54:16;;;;;;;105.82;32.13;;;;;;;8.38;100.00;100230.31;5053508;28;20070;-35
2022/12/22 03:56:42;;;;;;;102.93;30.58;;;;;;;8.36;100.00;100237.69;5069820;28;20120;-36
2022/12/22 03:59:07;;;;;;;100.07;31.02;;;;;;;8.35;100.00;100239.56;5070010;28;20108;-37
2022/12/22 04:01:36;;;;;;;93.95;29.73;;;;;;;8.35;100.00;100246.75;5065676;28;20032;-37
2022/12/22 04:04:02;;;;;;;93.53;27.05;;;;;;;8.33;100.00;100246.94;5059304;28;20025;-35
2022/12/22 04:06:27;;;;;;;99.95;29.42;;;;;;;8.30;100.00;100249.16;5049698;28;20032;-36
2022/12/22 04:08:53;;;;;;;97.82;30.35;;;;;;;8.26;100.00;100250.53;5049780;28;20036;-35
2022/12/22 04:14:03;;;;;;;134.63;23.92;;;;;;;8.16;100.00;100241.91;5057803;28;20443;-38
2022/12/22 04:16:28;;;;;;;133.85;23.83;;;;;;;8.11;100.00;100240.59;5059276;28;20025;-35
2022/12/22 04:18:54;;;;;;;223.77;26.17;;;;;;;8.04;100.00;100249.53;5061523;28;20471;-36
2022/12/22 04:21:19;;;;;;;152.10;24.65;;;;;;;8.01;100.00;100245.38;5049982;28;20029;-37
2022/12/22 04:23:44;;;;;;;262.75;24.95;;;;;;;7.97;100.00;100237.88;5056438;28;20387;-38
2022/12/22 04:26:10;;;;;;;187.95;23.70;;;;;;;7.95;100.00;100246.06;5061544;28;20056;-38
2022/12/22 04:28:35;;;;;;;183.70;21.85;;;;;;;7.91;100.00;100252.81;5059827;28;20048;-36
2022/12/22 04:31:00;;;;;;;129.73;21.95;;;;;;;7.94;100.00;100251.63;5062753;28;20060;-35
2022/12/22 04:33:26;;;;;;;96.45;19.40;;;;;;;7.93;100.00;100261.53;5069834;28;20021;-35
2022/12/22 04:35:51;;;;;;;148.57;19.25;;;;;;;7.90;100.00;100251.16;5063073;28;20063;-38
2022/12/22 04:38:16;;;;;;;165.07;18.95;;;;;;;7.88;100.00;100251.34;5054117;28;20472;-35
2022/12/22 04:40:42;;;;;;;138.15;20.25;;;;;;;7.88;100.00;100251.34;5058257;28;20029;-34
2022/12/22 04:43:07;;;;;;;160.15;18.98;;;;;;;7.86;100.00;100261.38;5071634;28;20112;-35
2022/12/22 04:45:32;;;;;;;116.65;17.88;;;;;;;7.84;100.00;100254.53;5053558;28;20446;-36
2022/12/22 04:47:58;;;;;;;100.60;16.92;;;;;;;7.84;100.00;100254.53;5051834;28;20040;-35
2022/12/22 04:50:23;;;;;;;106.47;16.80;;;;;;;7.84;100.00;100257.22;5053364;28;20033;-36
2022/12/22 04:52:48;;;;;;;101.53;16.05;;;;;;;7.82;100.00;100261.91;5063848;28;20158;-35
2022/12/22 04:55:14;;;;;;;132.73;17.00;;;;;;;7.82;100.00;100278.00;5061498;28;20163;-35
2022/12/22 04:57:39;;;;;;;134.82;17.90;;;;;;;7.81;100.00;100273.66;5063261;28;20024;-35
2022/12/22 05:00:05;;;;;;;109.15;18.10;;;;;;;7.81;100.00;100270.97;5065537;28;20110;-35
2022/12/22 05:02:31;;;;;;;115.03;18.10;;;;;;;7.82;100.00;100278.00;5054466;28;20035;-35
2022/12/22 05:04:56;;;;;;;107.35;17.92;;;;;;;7.81;100.00;100284.38;5058521;28;20029;-36
2022/12/22 05:07:21;;;;;;;95.78;17.08;;;;;;;7.80;100.00;100290.75;5068769;28;20039;-36
2022/12/22 05:09:46;;;;;;;83.93;17.17;;;;;;;7.80;100.00;100291.59;5067607;28;20119;-35
2022/12/22 05:14:55;;;;;;;87.63;16.90;;;;;;;7.80;100.00;100291.59;5061698;28;20039;-36
2022/12/22 05:17:21;;;;;;;91.45;17.75;;;;;;;7.79;100.00;100297.94;5072606;28;20606;-36
2022/12/22 05:19:46;;;;;;;75.00;17.50;;;;;;;7.79;100.00;100297.09;5057385;28;20403;-35
2022/12/22 05:22:11;;;;;;;77.05;17.33;;;;;;;7.75;100.00;100298.47;5057614;28;20437;-38
2022/12/22 05:24:37;;;;;;;90.75;17.75;;;;;;;7.72;100.00;100298.84;5059889;28;20119;-38
2022/12/22 05:27:02;;;;;;;85.13;18.05;;;;;;;7.70;100.00;100296.31;5066698;28;20121;-37
2022/12/22 05:29:27;;;;;;;82.53;18.42;;;;;;;7.66;100.00;100303.03;5073925;28;20112;-36
2022/12/22 05:31:53;;;;;;;83.10;18.75;;;;;;;7.59;100.00;100291.38;5077726;28;20440;-35
2022/12/22 05:34:18;;;;;;;76.70;17.77;;;;;;;7.55;100.00;100292.72;5080797;28;20047;-36
2022/12/22 05:36:43;;;;;;;80.95;18.17;;;;;;;7.48;100.00;100295.28;5073132;28;20024;-37
2022/12/22 05:39:09;;;;;;;72.80;16.88;;;;;;;7.41;100.00;100297.81;5072418;28;20048;-35
2022/12/22 05:41:34;;;;;;;56.92;15.38;;;;;;;7.34;100.00;100301.38;5072582;28;20503;-37
2022/12/22 05:43:59;;;;;;;54.83;16.33;;;;;;;7.25;100.00;100297.91;5063800;28;20468;-37
2022/12/22 05:46:25;;;;;;;63.45;16.88;;;;;;;7.20;100.00;100301.09;5058094;28;20499;-36
2022/12/22 05:48:50;;;;;;;69.35;17.00;;;;;;;7.15;100.00;100307.97;5061415;28;20396;-35
2022/12/22 05:51:15;;;;;;;69.93;16.83;;;;;;;7.09;100.00;100312.16;5057602;28;20418;-37
2022/12/22 05:53:41;;;;;;;68.43;17.75;;;;;;;7.04;100.00;100311.84;5057864;28;20032;-38
2022/12/22 05:56:07;;;;;;;58.92;17.85;;;;;;;6.98;100.00;100307.19;5068326;28;20479;-35
2022/12/22 05:58:33;;;;;;;69.13;18.15;;;;;;;6.91;100.00;100307.03;5065293;28;20433;-37
2022/12/22 06:00:59;;;;;;;74.95;17.73;;;;;;;6.88;100.00;100320.75;5052915;28;20044;-37
2022/12/22 06:03:26;;;;;;;62.40;17.77;;;;;;;6.87;100.00;100307.53;5069869;28;20032;-36
2022/12/22 06:05:52;;;;;;;70.05;18.92;;;;;;;6.86;100.00;100308.56;5066014;28;20017;-36
2022/12/22 06:08:18;;;;;;;52.70;17.23;;;;;;;6.80;100.00;100316.25;5063834;28;20484;-37
2022/12/22 06:10:43;;;;;;;66.80;17.20;;;;;;;6.80;100.00;100326.13;5052602;28;20055;-36
2022/12/22 06:13:08;;;;;;;64.28;16.42;;;;;;;6.80;100.00;100331.47;5060514;28;20043;-37
2022/12/22 06:15:34;;;;;;;57.15;16.48;;;;;;;6.82;100.00;100338.31;5071965;28;20044;-37
2022/12/22 06:17:59;;;;;;;61.90;16.80;;;;;;;6.85;100.00;100344.34;5063725;28;20036;-36
2022/12/22 06:20:24;;;;;;;58.47;16.40;;;;;;;6.85;100.00;100347.84;5070719;28;20020;-35
2022/12/22 06:22:50;;;;;;;59.55;16.92;;;;;;;6.90;100.00;100352.66;5069584;28;20502;-35
2022/12/22 06:25:15;;;;;;;65.50;17.10;;;;;;;6.91;100.00;100357.88;5051684;28;20029;-35
2022/12/22 06:27:40;;;;;;;53.30;15.60;;;;;;;6.94;100.00;100356.69;5051521;28;20049;-38
2022/12/22 06:30:07;;;;;;;46.55;14.02;;;;;;;6.95;100.00;100361.03;5050950;28;20036;-38
2022/12/22 06:32:36;;;;;;;46.55;15.15;;;;;;;6.99;100.00;100357.00;5057243;28;20047;-37
2022/12/22 06:35:01;;;;;;;44.22;13.95;;;;;;;6.98;100.00;100364.22;5057057;28;20040;-38
2022/12/22 06:37:26;;;;;;;40.63;14.02;;;;;;;7.00;100.00;100369.38;5051050;28;20021;-38
2022/12/22 06:39:52;;;;;;;43.75;14.48;;;;;;;6.99;100.00;100365.03;5059929;28;20483;-35
2022/12/22 06:45:01;;;;;;;44.40;13.88;;;;;;;6.99;100.00;100373.91;5071770;28;20150;-36
2022/12/22 06:47:26;;;;;;;44.67;13.38;;;;;;;6.99;100.00;100379.25;5071549;28;20038;-35
2022/12/22 06:49:51;;;;;;;39.85;12.02;;;;;;;6.98;100.00;100379.44;5067420;28;20074;-35
2022/12/22 06:52:17;;;;;;;41.42;12.15;;;;;;;6.98;100.00;100376.75;5071613;28;20107;-36
2022/12/22 06:54:42;;;;;;;29.83;11.48;;;;;;;6.95;100.00;100371.72;5069646;28;20052;-38
2022/12/22 06:57:07;;;;;;;33.95;11.27;;;;;;;6.93;100.00;100373.75;5072167;28;20020;-36
2022/12/22 06:59:33;;;;;;;34.63;11.40;;;;;;;6.95;100.00;100369.03;5071312;28;20039;-38
2022/12/22 07:01:58;;;;;;;42.33;11.18;;;;;;;6.97;100.00;100375.91;5054478;28;20028;-39
2022/12/22 07:04:23;;;;;;;30.70;9.80;;;;;;;6.94;100.00;100378.09;5049507;28;20393;-39
2022/12/22 07:06:49;;;;;;;32.38;10.23;;;;;;;6.90;100.00;100379.41;5050990;28;20084;-37
2022/12/22 07:09:14;;;;;;;36.42;10.02;;;;;;;6.87;100.00;100379.75;5050601;28;20194;-37
2022/12/22 07:11:40;;;;;;;34.25;10.32;;;;;;;6.81;100.00;100379.44;5049342;28;20112;-35
2022/12/22 07:14:05;;;;;;;39.42;9.80;;;;;;;6.77;100.00;100380.78;5051636;28;20678;-35
2022/12/22 07:16:30;;;;;;;35.03;10.52;;;;;;;6.73;100.00;100387.47;5069453;28;20032;-35
2022/12/22 07:18:56;;;;;;;25.77;8.77;;;;;;;6.73;100.00;100394.66;5058517;28;20097;-36
2022/12/22 07:21:21;;;;;;;24.02;9.10;;;;;;;6.68;100.00;100394.31;5049646;28;20032;-38
2022/12/22 07:23:46;;;;;;;34.47;9.20;;;;;;;6.63;100.00;100399.34;5049881;28;20017;-36
2022/12/22 07:26:14;;;;;;;30.63;9.82;;;;;;;6.60;100.00;100401.34;5053710;28;20029;-38
2022/12/22 07:28:40;;;;;;;26.20;8.95;;;;;;;6.56;100.00;100404.53;5047085;28;20052;-38
2022/12/22 07:31:07;;;;;;;30.13;9.80;;;;;;;6.52;100.00;100411.19;5052791;28;20491;-36
2022/12/22 07:33:32;;;;;;;28.05;8.93;;;;;;;6.49;100.00;100417.72;5060060;28;20487;-38
2022/12/22 07:36:07;;;;;;;25.17;9.48;;;;;;;6.48;100.00;100424.06;5063466;28;20058;-35
2022/12/22 07:38:35;;;;;;;25.75;8.98;;;;;;;6.47;100.00;100429.56;5061327;28;20394;-38
2022/12/22 07:41:00;;;;;;;27.42;10.00;;;;;;;6.49;100.00;100424.91;5064188;28;20047;-35
2022/12/22 07:43:26;;;;;;;28.70;9.70;;;;;;;6.46;100.00;100430.59;5064588;28;20480;-35
2022/12/22 07:45:51;;;;;;;28.60;10.25;;;;;;;6.45;100.00;100429.75;5064251;28;20079;-37
2022/12/22 07:51:05;;;;;;;25.60;9.30;;;;;;;6.44;100.00;100429.91;5041941;28;20040;-39
2022/12/22 07:53:33;;;;;;;42.40;9.57;;;;;;;6.45;100.00;100435.09;5062395;28;21480;-39
2022/12/22 07:56:03;;;;;;;25.07;9.17;;;;;;;6.45;100.00;100442.25;5063481;28;20097;-39
2022/12/22 07:58:28;;;;;;;23.48;9.60;;;;;;;6.46;100.00;100446.63;5063974;28;20043;-39
2022/12/22 08:00:58;;;;;;;24.27;7.75;;;;;;;6.49;100.00;100440.94;5063495;28;20040;-38
2022/12/22 08:03:23;;;;;;;28.23;8.00;;;;;;;6.52;100.00;100452.13;5062022;28;21928;-38
2022/12/22 08:05:49;;;;;;;27.98;8.20;;;;;;;6.53;100.00;100460.97;5064048;28;20162;-39
2022/12/22 08:08:14;;;;;;;23.48;7.20;;;;;;;6.51;100.00;100463.00;5066562;28;20537;-38
2022/12/22 08:10:39;;;;;;;21.95;7.63;;;;;;;6.50;100.00;100472.00;5067057;28;20494;-38
2022/12/22 08:13:05;;;;;;;27.10;7.97;;;;;;;6.44;100.00;100475.34;5068388;28;20041;-39
2022/12/22 08:15:30;;;;;;;20.35;8.20;;;;;;;6.42;100.00;100494.22;5066595;28;20058;-38
2022/12/22 08:17:55;;;;;;;17.00;7.70;;;;;;;6.42;100.00;100486.19;5067606;28;20055;-38
2022/12/22 08:20:21;;;;;;;21.48;8.02;;;;;;;6.43;100.00;100489.72;5066027;28;20024;-38
2022/12/22 08:22:46;;;;;;;34.00;7.72;;;;;;;6.43;100.00;100489.72;5068260;28;20131;-39
2022/12/22 08:25:11;;;;;;;23.13;7.55;;;;;;;6.44;100.00;100491.38;5068292;28;20040;-39
2022/12/22 08:27:42;;;;;;;22.27;7.35;;;;;;;6.44;100.00;100486.03;5066291;28;20060;-38
2022/12/22 08:30:09;;;;;;;26.73;8.90;;;;;;;6.45;100.00;100498.41;5067854;28;20032;-38
2022/12/22 08:32:36;;;;;;;20.73;7.03;;;;;;;6.46;100.00;100500.91;5066346;28;20402;-38
2022/12/22 08:35:05;;;;;;;26.23;7.43;;;;;;;6.49;100.00;100494.41;5066881;28;20036;-38
2022/12/22 08:37:33;;;;;;;22.05;7.40;;;;;;;6.52;100.00;100496.75;5064857;28;20279;-36
2022/12/22 08:40:00;;;;;;;;;;;;;;;6.75;100.00;100499.63;5066881;28;20097;-36
2022/12/22 08:42:26;;;;;;;21.67;8.30;;;;;;;7.26;100.00;100522.53;5066641;28;20498;-38
2022/12/22 08:44:52;;;;;;;19.10;7.32;;;;;;;7.87;100.00;100522.09;5067664;28;20028;-36
2022/12/22 08:47:21;;;;;;;15.77;7.18;;;;;;;8.35;100.00;100520.25;5066187;28;20064;-38
2022/12/22 08:49:47;;;;;;;15.85;5.60;;;;;;;8.32;100.00;100515.22;5067400;28;20454;-37
2022/12/22 08:52:13;;;;;;;13.35;5.28;;;;;;;8.31;100.00;100524.28;5066409;28;20041;-36
2022/12/22 08:54:38;;;;;;;13.00;4.55;;;;;;;7.82;100.00;100525.31;5065633;28;20032;-36
2022/12/22 08:57:04;;;;;;;21.75;5.05;;;;;;;7.75;100.00;100520.81;5066323;28;20043;-38
2022/12/22 08:59:29;;;;;;;19.30;4.82;;;;;;;7.91;100.00;100524.28;5067846;28;20115;-36
2022/12/22 09:01:55;;;;;;;17.75;4.97;;;;;;;8.09;100.00;100523.22;5065474;28;20028;-35
2022/12/22 09:04:21;;;;;;;13.88;4.57;;;;;;;8.42;100.00;100531.13;5066664;28;20356;-34
2022/12/22 09:06:46;;;;;;;14.90;4.53;;;;;;;8.65;100.00;100542.75;5067508;28;20028;-35
2022/12/22 09:09:13;;;;;;;11.60;3.75;;;;;;;8.70;100.00;100544.91;5067847;28;20024;-35
2022/12/22 09:11:39;;;;;;;16.58;3.53;;;;;;;8.53;100.00;100528.91;5066956;28;20067;-35
2022/12/22 09:14:06;;;;;;;20.77;4.03;;;;;;;8.62;100.00;100524.31;5065709;28;20777;-36
2022/12/22 09:16:32;;;;;;;19.60;4.05;;;;;;;8.67;100.00;100519.25;5065572;28;20106;-38
2022/12/22 09:18:58;;;;;;;9.30;3.50;;;;;;;8.84;100.00;100525.34;5065459;28;20442;-35
2022/12/22 09:21:24;;;;;;;15.60;3.08;;;;;;;9.17;100.00;100511.69;5067054;28;20028;-37
2022/12/22 09:23:50;;;;;;;11.32;2.92;;;;;;;9.79;100.00;100506.03;5066810;28;20111;-37
2022/12/22 09:26:18;;;;;;;20.83;3.20;;;;;;;10.03;100.00;100499.56;5067033;28;20369;-37
2022/12/22 09:28:43;;;;;;;;;;;;;;;10.13;100.00;100496.56;5065260;28;20119;-36
2022/12/22 09:31:09;;;;;;;21.60;3.17;;;;;;;10.22;100.00;100491.94;5065617;28;20043;-38
2022/12/22 09:33:37;;;;;;;11.55;2.95;;;;;;;10.40;100.00;100491.53;5066970;28;20287;-38
2022/12/22 09:36:09;;;;;;;10.57;3.53;;;;;;;10.57;100.00;100492.97;5064248;28;20048;-38
2022/12/22 09:38:34;;;;;;;14.63;2.92;;;;;;;10.82;100.00;100490.75;5066503;28;20101;-39
2022/12/22 09:41:09;;;;;;;13.52;3.50;;;;;;;11.14;100.00;100497.47;5066684;28;20040;-37
2022/12/22 09:43:34;;;;;;;15.75;2.92;;;;;;;11.39;100.00;100488.94;5065381;28;20377;-37
2022/12/22 09:46:00;;;;;;;9.73;3.03;;;;;;;11.62;100.00;100488.72;5064202;28;20094;-36
2022/12/22 09:48:35;;;;;;;9.30;2.63;;;;;;;11.79;100.00;100503.53;5064034;28;20124;-37
2022/12/22 09:51:01;;;;;;;12.65;3.13;;;;;;;11.84;100.00;100497.53;5064298;28;20527;-36
2022/12/22 09:53:27;;;;;;;11.88;3.30;;;;;;;11.40;100.00;100504.06;5065739;28;20021;-36
2022/12/22 09:55:52;;;;;;;14.55;2.78;;;;;;;11.28;100.00;100502.97;5065947;28;20043;-36
2022/12/22 09:58:19;;;;;;;16.40;2.78;;;;;;;11.29;100.00;100504.63;5065440;28;20427;-37
2022/12/22 10:00:51;;;;;;;14.70;2.83;;;;;;;11.30;100.00;100506.31;5063310;28;20036;-38
2022/12/22 10:03:19;;;;;;;11.40;2.70;;;;;;;11.34;100.00;100496.78;5064792;28;20028;-36
2022/12/22 10:05:50;;;;;;;9.95;2.78;;;;;;;11.23;100.00;100506.25;5065612;28;20064;-36
2022/12/22 10:08:29;;;;;;;14.35;3.40;;;;;;;11.08;100.00;100509.00;5063697;28;20036;-36
2022/12/22 10:10:55;;;;;;;11.40;3.03;;;;;;;10.69;100.00;100515.69;5064613;28;20476;-34
2022/12/22 10:13:21;;;;;;;10.65;2.72;;;;;;;10.43;100.00;100521.59;5063808;28;20024;-37
2022/12/22 10:15:47;;;;;;;8.95;3.13;;;;;;;10.32;100.00;100520.22;5066448;28;20028;-35
2022/12/22 10:18:17;;;;;;;12.35;3.05;;;;;;;10.46;100.00;100515.81;5066524;28;20029;-35
2022/12/22 10:21:10;;;;;;;8.13;2.65;;;;;;;10.13;100.00;100528.00;5066071;28;20028;-38
2022/12/22 10:23:46;;;;;;;13.80;3.63;;;;;;;9.96;100.00;100520.13;5065174;28;20979;-35
2022/12/22 10:26:21;;;;;;;12.50;3.08;;;;;;;10.01;100.00;100527.66;5065606;28;20115;-34
2022/12/22 10:28:47;;;;;;;9.93;3.10;;;;;;;10.11;100.00;100528.19;5063654;28;20060;-36
2022/12/22 10:31:20;;;;;;;11.40;3.80;;;;;;;10.04;100.00;100533.47;5063652;28;20651;-35
2022/12/22 10:33:48;;;;;;;9.77;4.47;;;;;;;10.22;100.00;100541.16;5064920;28;20498;-37
2022/12/22 10:36:14;;;;;;;;;;;;;;;10.13;100.00;100536.88;5065920;28;20434;-35
2022/12/22 10:38:52;;;;;;;11.50;2.92;;;;;;;10.04;100.00;100543.41;5064884;28;19985;-37
2022/12/22 10:41:20;;;;;;;14.35;3.33;;;;;;;9.99;100.00;100543.94;5063309;28;20036;-37
2022/12/22 10:43:53;;;;;;;25.40;4.50;;;;;;;9.93;100.00;100535.81;5065732;28;20082;-35
2022/12/22 10:46:29;;;;;;;10.00;3.33;;;;;;;10.16;100.00;100541.88;5064448;28;20499;-36
2022/12/22 10:49:27;;;;;;;10.98;3.30;;;;;;;10.22;100.00;100561.84;5063153;28;20036;-34
2022/12/22 10:51:55;;;;;;;10.35;4.32;;;;;;;10.26;100.00;100563.97;5064122;28;20051;-36
2022/12/22 10:54:32;;;;;;;9.32;4.38;;;;;;;10.21;100.00;100574.44;5065773;28;20032;-38
2022/12/22 10:57:13;;;;;;;17.10;5.60;;;;;;;10.08;100.00;100576.94;5064805;28;20040;-38
2022/12/22 10:59:52;;;;;;;14.60;7.25;;;;;;;9.56;100.00;100572.47;5064505;28;20037;-39
2022/12/22 11:02:20;;;;;;;14.40;7.43;;;;;;;9.15;100.00;100573.59;5065420;28;20086;-37
2022/12/22 11:04:45;;;;;;;;;;;;;;;8.96;100.00;100574.09;5065478;28;20021;-38
2022/12/22 11:07:10;;;;;;;13.60;8.00;;;;;;;8.86;100.00;100587.72;5061864;28;20287;-39
2022/12/22 11:09:36;;;;;;;16.95;8.82;;;;;;;8.83;100.00;100585.41;5064869;28;20037;-39
2022/12/22 11:12:26;;;;;;;18.30;8.88;;;;;;;8.75;100.00;100588.97;5065194;28;20035;-39
2022/12/22 11:15:16;;;;;;;16.40;9.57;;;;;;;8.60;100.00;100582.69;5064180;28;20484;-38
2022/12/22 11:18:20;;;;;;;21.75;11.82;;;;;;;8.42;100.00;100596.31;5064668;28;20191;-40
2022/12/22 11:20:54;;;;;;;23.48;12.68;;;;;;;8.32;100.00;100603.69;5063544;28;20044;-39
2022/12/22 11:23:22;;;;;;;34.72;16.50;;;;;;;8.18;100.00;100617.84;5061908;28;20041;-37
2022/12/22 11:26:13;;;;;;;46.25;19.67;;;;;;;8.14;100.00;100620.88;5065082;28;20124;-38
2022/12/22 11:28:44;;;;;;;30.65;16.23;;;;;;;7.96;100.00;100628.28;5064870;28;20458;-36
2022/12/22 11:31:12;;;;;;;33.47;14.90;;;;;;;7.74;100.00;100612.88;5064919;28;20075;-38
2022/12/22 11:33:37;;;;;;;;;;;;;;;7.53;100.00;100610.72;5064643;28;20063;-36
2022/12/22 11:36:05;;;;;;;27.05;12.15;;;;;;;7.45;100.00;100599.03;5063494;28;20588;-36
2022/12/22 11:38:48;;;;;;;28.60;12.73;;;;;;;7.30;100.00;100605.22;5062337;28;20029;-37
2022/12/22 11:41:31;;;;;;;31.17;14.90;;;;;;;7.17;100.00;100611.06;5060487;28;20024;-35
2022/12/22 11:44:35;;;;;;;34.75;14.70;;;;;;;7.12;100.00;100608.03;5064138;28;20090;-36
2022/12/22 11:47:15;;;;;;;30.13;12.30;;;;;;;7.16;100.00;100604.88;5061349;28;20121;-35
2022/12/22 11:50:04;;;;;;;35.35;12.88;;;;;;;7.15;100.00;100595.16;5062377;28;20039;-37
2022/12/22 11:52:38;;;;;;;26.67;10.95;;;;;;;7.06;100.00;100593.47;5061655;28;20032;-35
2022/12/22 11:55:06;;;;;;;25.42;10.93;;;;;;;7.14;100.00;100590.81;5063831;28;20048;-36
2022/12/22 11:57:38;;;;;;;27.80;12.00;;;;;;;7.19;100.00;100593.00;5064288;28;20036;-36
2022/12/22 12:00:13;;;;;;;23.83;10.30;;;;;;;7.12;100.00;100591.97;5061926;28;20036;-36
2022/12/22 12:03:10;;;;;;;25.10;11.40;;;;;;;7.14;100.00;100585.47;5061821;28;20032;-35
2022/12/22 12:05:51;;;;;;;23.77;10.45;;;;;;;7.08;100.00;100590.63;5064028;28;20463;-37
2022/12/22 12:08:34;;;;;;;21.23;11.18;;;;;;;7.08;100.00;100586.09;5063913;28;20036;-37
2022/12/22 12:11:16;;;;;;;20.92;10.63;;;;;;;7.12;100.00;100584.78;5063537;28;20029;-35
2022/12/22 12:14:07;;;;;;;25.75;12.48;;;;;;;7.09;100.00;100570.91;5046487;28;20036;-35
2022/12/22 12:16:38;;;;;;;28.52;14.35;;;;;;;7.10;100.00;100561.88;5063792;28;20033;-36
2022/12/22 12:19:28;;;;;;;30.83;15.60;;;;;;;7.19;100.00;100572.41;5063764;28;20047;-35
2022/12/22 12:22:04;;;;;;;35.58;15.75;;;;;;;7.16;100.00;100562.06;5063879;28;20099;-37
2022/12/22 12:24:39;;;;;;;33.35;17.00;;;;;;;7.19;100.00;100558.22;5060828;28;20107;-37
2022/12/22 12:27:17;;;;;;;39.38;19.65;;;;;;;7.21;100.00;100554.34;5064085;28;20056;-38
2022/12/22 12:29:49;;;;;;;35.92;18.67;;;;;;;7.31;100.00;100553.34;5062332;28;20028;-38
2022/12/22 12:32:19;;;;;;;39.88;19.83;;;;;;;7.37;100.00;100558.00;5060311;28;20036;-37
2022/12/22 12:34:48;;;;;;;44.05;20.60;;;;;;;7.33;100.00;100556.69;5064166;28;20415;-37
2022/12/22 12:37:22;;;;;;;38.67;19.77;;;;;;;7.35;100.00;100560.88;5062532;28;20328;-38
2022/12/22 12:40:15;;;;;;;39.95;20.35;;;;;;;7.33;100.00;100560.19;5058221;28;20043;-37
2022/12/22 12:42:44;;;;;;;44.08;22.65;;;;;;;7.35;100.00;100554.69;5059917;28;20048;-39
2022/12/22 12:45:33;;;;;;;41.38;21.13;;;;;;;7.41;100.00;100560.19;5060828;28;20040;-35
2022/12/22 12:48:20;;;;;;;39.08;20.92;;;;;;;7.46;100.00;100549.81;5044629;28;20021;-36
2022/12/22 12:50:47;;;;;;;43.28;21.80;;;;;;;7.45;100.00;100552.66;5062452;28;20032;-38
2022/12/22 12:53:13;;;;;;;47.25;23.40;;;;;;;7.56;100.00;100543.47;5067922;28;20472;-38
2022/12/22 12:55:38;;;;;;;47.47;23.13;;;;;;;7.48;100.00;100546.97;5067344;28;20047;-36
2022/12/22 12:58:09;;;;;;;42.67;21.40;;;;;;;7.51;100.00;100543.13;5066683;28;20032;-37
2022/12/22 13:00:34;;;;;;;52.90;22.30;;;;;;;7.57;100.00;100531.72;5066875;28;20063;-36
2022/12/22 13:03:04;;;;;;;48.85;21.27;;;;;;;7.65;100.00;100529.03;5067481;28;20391;-36
2022/12/22 13:05:50;;;;;;;52.33;22.77;;;;;;;7.67;100.00;100530.53;5065054;28;20028;-37
2022/12/22 13:08:23;;;;;;;39.90;21.25;;;;;;;7.75;100.00;100528.84;5060696;28;20060;-37
2022/12/22 13:10:54;;;;;;;48.03;21.38;;;;;;;7.73;100.00;100520.97;5063928;28;20056;-36
2022/12/22 13:13:25;;;;;;;45.35;20.65;;;;;;;7.72;100.00;100518.50;5062387;28;20161;-37
2022/12/22 13:16:00;;;;;;;42.72;21.70;;;;;;;7.73;100.00;100512.13;5067158;28;20036;-38
2022/12/22 13:18:27;;;;;;;46.88;22.17;;;;;;;7.72;100.00;100511.28;5065604;28;20040;-36
2022/12/22 13:21:21;;;;;;;48.75;23.42;;;;;;;7.78;100.00;100512.44;5064784;28;20031;-36
2022/12/22 13:24:15;;;;;;;45.35;21.27;;;;;;;7.87;100.00;100506.03;5066295;28;20041;-36
2022/12/22 13:26:41;;;;;;;49.13;22.48;;;;;;;7.85;100.00;100497.34;5067517;28;20033;-37
2022/12/22 13:29:21;;;;;;;43.28;21.70;;;;;;;7.87;100.00;100503.34;5066062;28;20075;-36
2022/12/22 13:32:00;;;;;;;47.35;21.83;;;;;;;7.89;100.00;100495.97;5065416;28;20029;-35
2022/12/22 13:34:33;;;;;;;44.67;22.23;;;;;;;7.97;100.00;100490.59;5061982;28;20090;-36
2022/12/22 13:37:11;;;;;;;48.40;22.85;;;;;;;8.02;100.00;100493.59;5062780;28;20021;-35
2022/12/22 13:39:36;;;;;;;57.10;24.83;;;;;;;8.05;100.00;100485.19;5065171;28;20032;-36
2022/12/22 13:42:04;;;;;;;46.88;22.50;;;;;;;8.16;100.00;100475.91;5064953;28;20040;-36
2022/12/22 13:44:31;;;;;;;44.15;22.15;;;;;;;8.20;100.00;100479.13;5046540;28;20040;-37
2022/12/22 13:47:02;;;;;;;42.20;21.95;;;;;;;8.18;100.00;100473.91;5064543;28;20111;-38
2022/12/22 13:49:28;;;;;;;48.08;21.77;;;;;;;8.12;100.00;100472.78;5065691;28;20119;-35
2022/12/22 13:51:54;;;;;;;47.58;22.63;;;;;;;8.16;100.00;100467.88;5060907;28;20043;-38
2022/12/22 13:54:22;;;;;;;41.40;21.90;;;;;;;8.23;100.00;100468.03;5059103;28;20032;-37
2022/12/22 13:56:53;;;;;;;43.72;21.85;;;;;;;8.27;100.00;100469.38;5063702;28;20100;-39
2022/12/22 13:59:33;;;;;;;43.53;21.90;;;;;;;8.21;100.00;100464.69;5062487;28;20364;-36
2022/12/22 14:02:01;;;;;;;44.45;21.23;;;;;;;8.22;100.00;100466.38;5059929;28;20141;-36
2022/12/22 14:04:28;;;;;;;46.70;20.70;;;;;;;8.26;100.00;100465.00;5062162;28;20108;-35
2022/12/22 14:06:53;;;;;;;42.60;23.10;;;;;;;8.18;100.00;100460.50;5062886;28;20025;-37
2022/12/22 14:09:23;;;;;;;44.13;21.73;;;;;;;8.23;100.00;100457.31;5062773;28;20024;-37
2022/12/22 14:12:01;;;;;;;46.92;23.40;;;;;;;8.27;100.00;100442.56;5063318;28;20024;-35
2022/12/22 14:14:29;;;;;;;47.10;21.38;;;;;;;8.31;100.00;100449.22;5060843;28;20048;-38
2022/12/22 14:16:55;;;;;;;;;;;;;;;8.25;100.00;100439.22;5057844;28;20029;-35
2022/12/22 14:19:22;;;;;;;39.75;22.45;;;;;;;8.26;100.00;100443.53;5062130;28;19916;-35
2022/12/22 14:22:02;;;;;;;42.33;22.90;;;;;;;8.23;100.00;100443.91;5057193;28;20036;-37
2022/12/22 14:24:32;;;;;;;42.47;21.77;;;;;;;8.29;100.00;100435.16;5059768;28;20464;-35
2022/12/22 14:26:58;;;;;;;40.95;22.38;;;;;;;8.26;100.00;100430.13;5059236;28;20116;-35
2022/12/22 14:29:26;;;;;;;50.25;22.30;;;;;;;8.26;100.00;100428.28;5056609;28;20181;-36
2022/12/22 14:31:52;;;;;;;52.13;23.25;;;;;;;8.26;100.00;100416.75;5061108;28;20031;-38
2022/12/22 14:34:29;;;;;;;40.10;21.75;;;;;;;8.23;100.00;100425.13;5063140;28;20063;-36
2022/12/22 14:36:55;;;;;;;44.53;21.88;;;;;;;8.22;100.00;100426.16;5058531;28;20041;-34
2022/12/22 14:39:27;;;;;;;45.22;23.30;;;;;;;8.20;100.00;100412.09;5054227;28;20032;-36
2022/12/22 14:41:54;;;;;;;45.33;22.13;;;;;;;8.19;100.00;100423.81;5062552;28;20445;-35
2022/12/22 14:44:26;;;;;;;47.97;23.10;;;;;;;8.27;100.00;100426.47;5062133;28;20483;-35
2022/12/22 14:47:16;;;;;;;46.40;21.65;;;;;;;8.17;100.00;100423.19;5058461;28;20508;-35
2022/12/22 14:49:53;;;;;;;46.17;24.30;;;;;;;8.16;100.00;100413.44;5058175;28;20568;-35
2022/12/22 14:52:34;;;;;;;44.45;22.27;;;;;;;8.17;100.00;100410.59;5058091;28;20460;-38
2022/12/22 14:55:01;;;;;;;48.55;23.40;;;;;;;8.11;100.00;100404.09;5060473;28;20388;-37
2022/12/22 14:57:40;;;;;;;48.80;24.33;;;;;;;8.06;100.00;100409.16;5061192;28;20028;-36
2022/12/22 15:00:26;;;;;;;50.05;23.67;;;;;;;8.03;100.00;100408.66;5060857;28;20036;-39
2022/12/22 15:02:54;;;;;;;51.03;23.77;;;;;;;8.03;100.00;100398.78;5060136;28;20080;-39